Time;durP1;ratioP1;P1;durP2;ratioP2;P2;SDS_P1;SDS_P2;PMS_P1;PMS_P2;Temp;Humidity;BMP_temperature;BMP_pressure;BME280_temperature;BME280_humidity;BME280_pressure;Samples;Min_cycle;Max_cycle;Signal;HPM_P1;HPM_P2
2022/03/14 04:02:42;;;;;;;8.13;3.72;;;10.30;99.90;;;;;;6310148;22;20443;-82
2022/03/14 04:05:09;;;;;;;5.78;3.80;;;10.30;99.90;;;;;;6282714;22;20012;-82
2022/03/14 04:07:35;;;;;;;6.25;3.70;;;10.30;99.90;;;;;;6281950;22;20498;-83
2022/03/14 04:10:03;;;;;;;5.85;3.67;;;10.20;99.90;;;;;;6282797;22;20011;-82
2022/03/14 04:12:28;;;;;;;7.05;3.85;;;10.30;99.90;;;;;;6308775;22;20008;-82
2022/03/14 04:15:04;;;;;;;6.68;4.20;;;10.20;99.90;;;;;;6310518;22;20057;-81
2022/03/14 04:17:31;;;;;;;6.10;3.60;;;10.20;99.90;;;;;;6257873;22;20086;-82
2022/03/14 04:19:59;;;;;;;6.85;3.30;;;10.20;99.90;;;;;;6309800;22;20497;-82
2022/03/14 04:22:27;;;;;;;5.25;3.65;;;10.20;99.90;;;;;;6282184;22;20077;-81
2022/03/14 04:24:53;;;;;;;4.80;3.33;;;10.20;99.90;;;;;;6282764;22;20037;-81
2022/03/14 04:27:19;;;;;;;5.65;3.80;;;10.20;99.90;;;;;;6310099;22;20029;-82
2022/03/14 04:29:44;;;;;;;5.57;3.30;;;10.20;99.90;;;;;;6282574;22;20042;-82
2022/03/14 04:32:10;;;;;;;4.85;3.20;;;10.20;99.90;;;;;;6282719;22;20011;-82
2022/03/14 04:34:36;;;;;;;4.30;2.70;;;10.20;99.90;;;;;;6256265;22;20436;-81
2022/03/14 04:37:01;;;;;;;5.28;3.00;;;10.30;99.90;;;;;;6309703;22;20019;-82
2022/03/14 04:39:27;;;;;;;4.03;2.50;;;10.30;99.90;;;;;;6282497;22;20475;-81
2022/03/14 04:41:54;;;;;;;4.00;2.30;;;10.40;99.90;;;;;;6256879;22;20026;-82
2022/03/14 04:44:21;;;;;;;4.50;2.40;;;10.50;99.90;;;;;;6282576;22;20019;-82
2022/03/14 04:46:47;;;;;;;3.42;2.03;;;10.50;99.90;;;;;;6282391;22;20444;-82
2022/03/14 04:49:13;;;;;;;3.90;2.30;;;10.50;99.90;;;;;;6282369;22;20011;-82
2022/03/14 04:51:39;;;;;;;3.38;2.20;;;10.50;99.90;;;;;;6282516;22;20007;-81
2022/03/14 04:54:05;;;;;;;4.10;1.92;;;10.50;99.90;;;;;;6310174;22;20011;-82
2022/03/14 04:56:31;;;;;;;4.18;2.42;;;10.60;99.90;;;;;;6282128;22;20022;-82
2022/03/14 04:58:56;;;;;;;2.92;2.00;;;10.60;99.90;;;;;;6280877;22;20046;-82
2022/03/14 05:01:23;;;;;;;3.47;2.20;;;10.60;99.90;;;;;;6309191;22;20054;-82
2022/03/14 05:03:50;;;;;;;3.50;2.00;;;10.60;99.90;;;;;;6282571;22;20011;-83
2022/03/14 05:06:16;;;;;;;4.00;1.90;;;10.60;99.90;;;;;;6282055;22;20387;-82
2022/03/14 05:08:43;;;;;;;3.55;1.98;;;10.60;99.90;;;;;;6309686;22;20086;-83
2022/03/14 05:11:11;;;;;;;3.92;1.92;;;10.60;99.90;;;;;;6309584;22;20016;-82
2022/03/14 05:13:40;;;;;;;4.40;2.33;;;10.60;99.90;;;;;;6282389;22;20465;-83
2022/03/14 05:16:06;;;;;;;3.95;2.40;;;10.60;99.90;;;;;;6282362;22;19999;-82
2022/03/14 05:18:31;;;;;;;4.63;2.28;;;10.60;99.90;;;;;;6282112;22;20114;-81
2022/03/14 05:20:57;;;;;;;3.60;2.22;;;10.60;99.90;;;;;;6282369;22;20019;-81
2022/03/14 05:23:24;;;;;;;3.45;2.10;;;10.50;99.90;;;;;;6280936;22;20077;-82
2022/03/14 05:25:50;;;;;;;4.72;2.33;;;10.60;99.90;;;;;;6281487;22;20018;-82
2022/03/14 05:28:16;;;;;;;4.00;2.25;;;10.50;99.90;;;;;;6282005;22;20015;-82
2022/03/14 05:30:41;;;;;;;5.03;2.28;;;10.60;99.90;;;;;;6282305;22;20011;-81
2022/03/14 05:33:07;;;;;;;4.10;2.80;;;10.60;99.90;;;;;;6309940;22;20007;-81
2022/03/14 05:35:33;;;;;;;4.07;2.45;;;10.50;99.90;;;;;;6282483;22;20344;-82
2022/03/14 05:37:58;;;;;;;3.92;2.42;;;10.50;99.90;;;;;;6283318;22;20017;-81
2022/03/14 05:40:24;;;;;;;3.33;2.08;;;10.50;99.90;;;;;;6257579;22;20011;-82
2022/03/14 05:42:50;;;;;;;3.70;2.28;;;10.50;99.90;;;;;;6282020;22;20022;-81
2022/03/14 05:45:17;;;;;;;3.92;2.47;;;10.50;99.90;;;;;;6280999;22;20448;-80
2022/03/14 05:47:44;;;;;;;3.88;2.45;;;10.50;99.90;;;;;;6282087;22;20023;-82
2022/03/14 05:50:10;;;;;;;4.00;2.40;;;10.50;99.90;;;;;;6281537;22;20020;-81
2022/03/14 05:52:36;;;;;;;4.35;2.55;;;10.50;99.90;;;;;;6282330;22;20444;-83
2022/03/14 05:55:02;;;;;;;4.43;2.55;;;10.50;99.90;;;;;;6282299;22;20021;-82
2022/03/14 05:57:27;;;;;;;4.55;3.00;;;10.40;99.90;;;;;;6309971;22;20011;-83
2022/03/14 05:59:53;;;;;;;4.45;2.83;;;10.40;99.90;;;;;;6281736;22;20377;-83
2022/03/14 06:02:20;;;;;;;5.07;3.03;;;10.40;99.90;;;;;;6309751;22;20011;-82
2022/03/14 06:04:47;;;;;;;4.40;2.60;;;10.40;99.90;;;;;;6282463;22;20007;-84
2022/03/14 06:07:13;;;;;;;4.78;2.88;;;10.40;99.90;;;;;;6282265;22;20015;-83
2022/03/14 06:09:39;;;;;;;4.72;2.90;;;10.40;99.90;;;;;;6280144;22;20437;-83
2022/03/14 06:12:05;;;;;;;5.13;3.13;;;10.40;99.90;;;;;;6283118;22;20337;-84
2022/03/14 06:14:31;;;;;;;4.38;2.97;;;10.40;99.90;;;;;;6258519;22;20015;-85
2022/03/14 06:16:57;;;;;;;4.82;3.00;;;10.40;99.90;;;;;;6311340;22;20038;-82
2022/03/14 06:19:23;;;;;;;4.93;3.10;;;10.40;99.90;;;;;;6283644;22;20019;-83
2022/03/14 06:21:50;;;;;;;4.68;3.17;;;10.40;99.90;;;;;;6311174;22;20015;-84
2022/03/14 06:24:16;;;;;;;4.35;2.95;;;10.30;99.90;;;;;;6282895;22;20018;-82
2022/03/14 06:26:42;;;;;;;5.88;3.25;;;10.40;99.90;;;;;;6283374;22;20049;-83
2022/03/14 06:29:08;;;;;;;6.35;2.90;;;10.30;99.90;;;;;;6310787;22;20361;-83
2022/03/14 06:31:34;;;;;;;4.28;2.90;;;10.30;99.90;;;;;;6282205;22;20015;-82
2022/03/14 06:34:00;;;;;;;4.45;3.15;;;10.30;99.90;;;;;;6282535;22;20459;-83
2022/03/14 06:36:27;;;;;;;5.78;2.97;;;10.30;99.90;;;;;;6282952;22;20026;-84
2022/03/14 06:38:55;;;;;;;4.78;3.30;;;10.30;99.90;;;;;;6283619;22;20329;-83
2022/03/14 06:41:21;;;;;;;5.72;3.70;;;10.30;99.90;;;;;;6282905;22;20019;-83
2022/03/14 06:43:46;;;;;;;4.68;3.10;;;10.30;99.90;;;;;;6282700;22;20433;-83
2022/03/14 06:46:12;;;;;;;4.97;3.33;;;10.30;99.90;;;;;;6310868;22;20007;-83
2022/03/14 06:48:40;;;;;;;6.55;3.63;;;10.30;99.90;;;;;;6282685;22;20026;-82
2022/03/14 06:51:06;;;;;;;7.22;3.97;;;10.30;99.90;;;;;;6310668;22;20046;-82
2022/03/14 06:53:32;;;;;;;7.53;3.88;;;10.30;99.90;;;;;;6282661;22;20012;-83
2022/03/14 06:55:58;;;;;;;6.95;4.25;;;10.30;99.90;;;;;;6281446;22;20022;-83
2022/03/14 06:58:24;;;;;;;5.70;3.60;;;10.30;99.90;;;;;;6282021;22;20011;-82
2022/03/14 07:00:50;;;;;;;7.28;4.20;;;10.30;99.90;;;;;;6256573;22;20464;-82
2022/03/14 07:03:16;;;;;;;6.40;4.18;;;10.30;99.90;;;;;;6309910;22;20086;-81
2022/03/14 07:05:41;;;;;;;6.78;3.95;;;10.30;99.90;;;;;;6310070;22;20372;-83
2022/03/14 07:08:09;;;;;;;6.68;4.53;;;10.30;99.90;;;;;;6282855;22;20015;-83
2022/03/14 07:10:36;;;;;;;7.88;4.70;;;10.20;99.90;;;;;;6282618;22;20436;-83
2022/03/14 07:13:01;;;;;;;5.80;3.97;;;10.20;99.90;;;;;;6257284;22;20015;-83
2022/03/14 07:15:27;;;;;;;6.10;4.25;;;10.20;99.90;;;;;;6282844;22;20423;-82
2022/03/14 07:17:53;;;;;;;6.95;4.70;;;10.20;99.90;;;;;;6282505;22;20019;-83
2022/03/14 07:20:20;;;;;;;6.80;4.47;;;10.20;99.90;;;;;;6281571;22;20026;-82
2022/03/14 07:22:48;;;;;;;7.53;4.63;;;10.20;99.90;;;;;;6281117;22;20029;-83
2022/03/14 07:25:17;;;;;;;6.13;4.20;;;10.30;99.90;;;;;;6282957;22;20019;-83
2022/03/14 07:27:43;;;;;;;7.53;4.55;;;10.20;99.90;;;;;;6282504;22;20061;-83
2022/03/14 07:30:09;;;;;;;7.03;4.68;;;10.20;99.90;;;;;;6282971;22;20360;-83
2022/03/14 07:32:35;;;;;;;7.68;5.05;;;10.20;99.90;;;;;;6282497;22;20007;-83
2022/03/14 07:35:00;;;;;;;9.95;5.03;;;10.20;99.90;;;;;;6282356;22;20092;-83
2022/03/14 07:37:26;;;;;;;8.60;5.45;;;10.20;99.90;;;;;;6282494;22;20064;-84
2022/03/14 07:39:51;;;;;;;8.05;5.45;;;10.20;99.90;;;;;;6282600;22;20015;-84
2022/03/14 07:42:17;;;;;;;7.43;4.82;;;10.20;99.90;;;;;;6282399;22;20019;-83
2022/03/14 07:44:43;;;;;;;9.80;5.93;;;10.20;99.90;;;;;;6282177;22;20015;-84
2022/03/14 07:47:10;;;;;;;9.27;5.65;;;10.20;99.90;;;;;;6281687;22;20090;-83
2022/03/14 07:49:36;;;;;;;11.45;6.20;;;10.20;99.90;;;;;;6282392;22;20495;-84
2022/03/14 07:52:02;;;;;;;8.68;6.03;;;10.20;99.90;;;;;;6281955;22;20072;-83
2022/03/14 07:54:28;;;;;;;9.25;5.78;;;10.20;99.90;;;;;;6281687;22;20029;-84
2022/03/14 07:56:54;;;;;;;9.68;6.18;;;10.20;99.90;;;;;;6256528;22;20444;-82
2022/03/14 07:59:19;;;;;;;9.68;6.40;;;10.20;99.90;;;;;;6282478;22;20022;-84
2022/03/14 08:01:46;;;;;;;9.32;5.82;;;10.20;99.90;;;;;;6281882;22;20026;-85
2022/03/14 08:04:12;;;;;;;14.38;7.60;;;10.10;99.90;;;;;;6282732;22;20019;-86
2022/03/14 08:06:41;;;;;;;9.93;6.72;;;10.10;99.90;;;;;;6282510;22;20082;-83
2022/03/14 08:09:08;;;;;;;9.63;6.55;;;10.10;99.90;;;;;;6282687;22;20015;-85
2022/03/14 08:11:38;;;;;;;10.98;7.82;;;10.10;99.90;;;;;;6282449;22;20021;-84
2022/03/14 08:14:07;;;;;;;13.02;8.77;;;10.10;99.90;;;;;;6311756;22;20486;-82
2022/03/14 08:16:33;;;;;;;18.77;11.75;;;10.00;99.90;;;;;;6290320;22;20014;-90
2022/03/14 08:18:59;;;;;;;20.98;12.52;;;9.90;99.90;;;;;;6268366;22;20051;-88
2022/03/14 08:21:25;;;;;;;21.92;13.25;;;9.80;99.90;;;;;;6279601;22;20039;-91
2022/03/14 08:23:50;;;;;;;23.38;13.93;;;9.70;99.90;;;;;;6302343;22;20018;-90
2022/03/14 08:26:17;;;;;;;24.80;14.20;;;9.70;99.90;;;;;;6261243;22;20018;-89
2022/03/14 08:28:43;;;;;;;27.05;15.48;;;9.70;99.90;;;;;;6260529;22;20016;-90
2022/03/14 08:31:11;;;;;;;32.50;18.67;;;9.60;99.90;;;;;;6284061;22;20015;-92
2022/03/14 08:33:40;;;;;;;30.83;17.38;;;9.60;99.90;;;;;;6283246;22;20011;-91
2022/03/14 08:36:06;;;;;;;34.85;18.98;;;9.50;99.90;;;;;;6282848;22;20018;-84
2022/03/14 08:38:32;;;;;;;30.67;18.15;;;9.40;99.90;;;;;;6310179;22;20007;-85
2022/03/14 08:40:58;;;;;;;35.33;18.58;;;9.40;99.90;;;;;;6283237;22;20041;-87
2022/03/14 08:43:24;;;;;;;35.92;19.10;;;9.30;99.90;;;;;;6282240;22;20069;-86
2022/03/14 08:45:50;;;;;;;35.38;18.98;;;9.30;99.90;;;;;;6281978;22;20033;-85
2022/03/14 08:48:15;;;;;;;36.80;19.20;;;9.30;99.90;;;;;;6281473;22;20015;-85
2022/03/14 08:50:41;;;;;;;34.72;18.23;;;9.30;99.90;;;;;;6281060;22;20030;-86
2022/03/14 08:53:08;;;;;;;34.65;18.85;;;9.30;99.90;;;;;;6281682;22;20046;-86
2022/03/14 08:55:34;;;;;;;32.55;17.38;;;9.20;99.90;;;;;;6282899;22;20464;-85
2022/03/14 08:58:00;;;;;;;35.22;20.08;;;9.20;99.90;;;;;;6282722;22;20007;-86
2022/03/14 09:00:27;;;;;;;31.25;16.42;;;9.30;99.90;;;;;;6282503;22;20072;-85
2022/03/14 09:02:54;;;;;;;32.63;16.52;;;9.20;99.90;;;;;;6281914;22;20015;-85
2022/03/14 09:05:19;;;;;;;28.13;14.93;;;9.20;99.90;;;;;;6257311;22;20025;-86
2022/03/14 09:07:45;;;;;;;32.15;15.13;;;9.20;99.90;;;;;;6310424;22;20046;-85
2022/03/14 09:10:16;;;;;;;36.05;16.33;;;9.20;99.90;;;;;;6256381;22;20441;-85
2022/03/14 09:12:42;;;;;;;37.40;18.42;;;9.10;99.90;;;;;;6282325;22;20012;-86
2022/03/14 09:15:10;;;;;;;44.28;19.02;;;9.10;99.90;;;;;;6282491;22;20072;-86
2022/03/14 09:17:49;;;;;;;35.92;17.05;;;9.10;99.90;;;;;;6283288;22;20337;-85
2022/03/14 09:20:15;;;;;;;38.08;17.05;;;9.10;99.90;;;;;;6282231;22;20015;-86
2022/03/14 09:22:45;;;;;;;32.15;16.13;;;9.10;99.90;;;;;;6256598;22;20090;-86
2022/03/14 09:25:14;;;;;;;34.08;15.85;;;9.20;99.90;;;;;;6282583;22;20042;-86
2022/03/14 09:27:41;;;;;;;33.63;15.38;;;9.20;99.90;;;;;;6282392;22;20015;-85
2022/03/14 09:30:07;;;;;;;32.45;15.65;;;9.20;99.90;;;;;;6256583;22;20076;-85
2022/03/14 09:32:33;;;;;;;29.13;13.15;;;9.20;99.90;;;;;;6282401;22;20053;-85
2022/03/14 09:34:59;;;;;;;26.48;13.35;;;9.30;99.90;;;;;;6256115;22;20368;-86
2022/03/14 09:37:26;;;;;;;30.17;14.60;;;9.30;99.90;;;;;;6257116;22;20007;-85
2022/03/14 09:39:52;;;;;;;27.48;13.75;;;9.30;99.90;;;;;;6256851;22;20090;-86
2022/03/14 09:42:21;;;;;;;26.60;12.70;;;9.30;99.90;;;;;;6282160;22;20023;-86
2022/03/14 09:44:53;;;;;;;30.52;14.68;;;9.30;99.90;;;;;;6310150;22;20375;-86
2022/03/14 09:47:21;;;;;;;28.17;13.20;;;9.40;99.90;;;;;;6284109;22;20068;-85
2022/03/14 09:49:47;;;;;;;25.27;12.02;;;9.40;99.90;;;;;;6258443;22;20042;-84
2022/03/14 09:52:15;;;;;;;31.20;13.85;;;9.40;99.90;;;;;;6284471;22;20014;-86
2022/03/14 09:54:41;;;;;;;24.95;12.07;;;9.50;99.90;;;;;;6312280;22;20070;-87
2022/03/14 09:57:07;;;;;;;30.95;11.35;;;9.60;99.90;;;;;;6283859;22;20416;-86
2022/03/14 09:59:35;;;;;;;20.85;10.05;;;9.60;99.90;;;;;;6312699;22;20041;-85
2022/03/14 10:02:02;;;;;;;22.98;10.45;;;9.70;99.90;;;;;;6284474;22;20086;-86
2022/03/14 10:04:28;;;;;;;22.85;10.35;;;9.70;99.90;;;;;;6283609;22;20445;-86
2022/03/14 10:06:53;;;;;;;20.40;8.35;;;9.70;99.90;;;;;;6283938;22;20067;-86
2022/03/14 10:09:19;;;;;;;20.55;8.80;;;9.80;99.90;;;;;;6283591;22;20022;-86
2022/03/14 10:11:45;;;;;;;17.92;7.85;;;9.70;99.90;;;;;;6258764;22;20007;-86
2022/03/14 10:14:16;;;;;;;18.40;8.30;;;9.70;99.90;;;;;;6285341;22;20011;-86
2022/03/14 10:16:44;;;;;;;16.58;7.18;;;9.70;99.90;;;;;;6283746;22;20084;-86
2022/03/14 10:19:10;;;;;;;17.73;6.97;;;9.70;99.90;;;;;;6258384;22;20409;-86
2022/03/14 10:21:46;;;;;;;15.77;6.53;;;9.80;99.90;;;;;;6283688;22;20019;-85
2022/03/14 10:24:13;;;;;;;19.35;6.80;;;9.70;99.90;;;;;;6258281;22;20152;-85
2022/03/14 10:26:44;;;;;;;16.50;5.88;;;9.80;99.90;;;;;;6258290;22;20065;-85
2022/03/14 10:29:13;;;;;;;16.70;7.28;;;9.80;99.90;;;;;;6257443;22;20015;-85
2022/03/14 10:31:42;;;;;;;14.05;6.28;;;9.90;99.90;;;;;;6284061;22;20086;-86
2022/03/14 10:34:11;;;;;;;14.98;6.22;;;9.90;99.90;;;;;;6283174;22;20019;-85
2022/03/14 10:36:57;;;;;;;13.82;5.43;;;10.00;99.90;;;;;;6257982;22;20012;-86
2022/03/14 10:39:26;;;;;;;20.58;6.97;;;10.00;99.90;;;;;;6283469;22;20318;-85
2022/03/14 10:42:08;;;;;;;15.18;5.90;;;10.00;99.90;;;;;;6311380;22;20011;-85
2022/03/14 10:44:37;;;;;;;15.40;5.63;;;10.00;99.90;;;;;;6283242;22;20022;-86
2022/03/14 10:47:05;;;;;;;18.60;8.05;;;10.00;99.90;;;;;;6283780;22;20042;-84
2022/03/14 10:49:33;;;;;;;19.63;7.28;;;10.00;99.90;;;;;;6257629;22;20019;-87
2022/03/14 10:52:07;;;;;;;18.52;7.45;;;10.00;99.90;;;;;;6282421;22;20011;-86
2022/03/14 10:54:43;;;;;;;15.70;8.48;;;10.00;99.90;;;;;;6282833;22;20102;-85
2022/03/14 10:57:09;;;;;;;;;;;10.00;99.90;;;;;;6283454;22;20023;-86
2022/03/14 10:59:36;;;;;;;18.52;10.48;;;10.10;99.90;;;;;;6283380;22;19942;-86
2022/03/14 11:02:04;;;;;;;24.75;12.98;;;10.10;99.90;;;;;;6283112;22;20019;-86
2022/03/14 11:04:59;;;;;;;30.95;15.00;;;10.10;99.90;;;;;;6283470;22;20019;-85
2022/03/14 11:07:31;;;;;;;28.33;14.63;;;10.10;99.90;;;;;;6256090;22;20019;-85
2022/03/14 11:09:59;;;;;;;26.65;14.98;;;10.20;99.90;;;;;;6282797;22;20461;-86
2022/03/14 11:12:28;;;;;;;32.97;16.40;;;10.20;99.90;;;;;;6282684;22;20018;-86
2022/03/14 11:14:53;;;;;;;33.72;17.17;;;10.20;99.90;;;;;;6283269;22;20132;-86
2022/03/14 11:17:22;;;;;;;29.67;16.73;;;10.20;99.90;;;;;;6257663;22;20019;-85
2022/03/14 11:19:49;;;;;;;30.08;17.85;;;10.30;99.90;;;;;;6257897;22;20128;-86
2022/03/14 11:22:17;;;;;;;29.08;16.88;;;10.30;99.90;;;;;;6283065;22;20015;-84
2022/03/14 11:24:50;;;;;;;32.17;18.05;;;10.40;99.90;;;;;;6282891;22;20398;-85
2022/03/14 11:27:26;;;;;;;32.28;16.80;;;10.40;99.90;;;;;;6281196;22;20310;-86
2022/03/14 11:29:54;;;;;;;30.80;17.65;;;10.30;99.90;;;;;;6281514;22;20051;-85
2022/03/14 11:32:21;;;;;;;27.38;18.10;;;10.30;99.90;;;;;;6281879;22;20018;-84
2022/03/14 11:34:48;;;;;;;30.33;17.50;;;10.40;99.90;;;;;;6281999;22;20088;-85
2022/03/14 11:37:16;;;;;;;30.85;18.58;;;10.40;99.90;;;;;;6282626;22;20078;-84
2022/03/14 11:39:43;;;;;;;30.02;16.30;;;10.50;99.90;;;;;;6283747;22;20046;-84
2022/03/14 11:42:11;;;;;;;28.05;16.30;;;10.60;99.90;;;;;;6284956;22;20007;-85
2022/03/14 11:44:38;;;;;;;28.80;16.35;;;10.60;99.90;;;;;;6283654;22;20058;-85
2022/03/14 11:47:08;;;;;;;27.02;15.32;;;10.60;99.90;;;;;;6260058;22;20033;-88
2022/03/14 11:49:37;;;;;;;27.77;16.05;;;10.60;99.90;;;;;;6284590;22;20058;-85
2022/03/14 11:52:18;;;;;;;25.25;15.00;;;10.60;99.90;;;;;;6284889;22;20043;-86
2022/03/14 11:54:50;;;;;;;28.95;17.67;;;10.50;99.90;;;;;;6286217;22;20015;-84
2022/03/14 11:57:35;;;;;;;31.67;17.13;;;10.60;99.90;;;;;;6285186;22;20065;-85
2022/03/14 12:00:27;;;;;;;30.65;16.15;;;10.70;99.90;;;;;;6283147;22;20302;-84
2022/03/14 12:03:01;;;;;;;27.45;17.02;;;10.70;99.90;;;;;;6257588;22;20011;-85
2022/03/14 12:05:33;;;;;;;26.55;15.88;;;10.80;99.90;;;;;;6284062;22;20077;-85
2022/03/14 12:07:59;;;;;;;26.33;16.48;;;10.80;99.90;;;;;;6257427;22;20019;-85
2022/03/14 12:10:29;;;;;;;29.65;15.77;;;10.90;99.90;;;;;;6257469;22;20449;-85
2022/03/14 12:12:56;;;;;;;25.35;15.50;;;11.00;99.90;;;;;;6283126;22;20445;-85
2022/03/14 12:15:41;;;;;;;30.25;16.42;;;10.90;99.90;;;;;;6256569;22;20012;-86
2022/03/14 12:18:25;;;;;;;28.45;16.55;;;11.00;99.90;;;;;;6282730;22;20011;-86
2022/03/14 12:20:54;;;;;;;33.97;18.05;;;11.10;99.90;;;;;;6257403;22;20011;-85
2022/03/14 12:23:25;;;;;;;29.80;17.63;;;11.10;99.90;;;;;;6256950;22;20022;-84
2022/03/14 12:25:50;;;;;;;26.27;14.13;;;11.20;99.90;;;;;;6283821;22;20354;-84
2022/03/14 12:28:36;;;;;;;24.65;16.02;;;11.30;99.90;;;;;;6282718;22;20022;-85
2022/03/14 12:31:13;;;;;;;27.17;16.23;;;11.40;99.90;;;;;;6282064;22;20015;-85
2022/03/14 12:33:44;;;;;;;31.73;15.77;;;11.50;99.90;;;;;;6282948;22;20408;-85
2022/03/14 12:36:24;;;;;;;24.98;14.43;;;11.70;99.90;;;;;;6282291;22;20012;-84
2022/03/14 12:39:05;;;;;;;25.67;13.68;;;11.80;99.90;;;;;;6283211;22;20042;-86
2022/03/14 12:41:31;;;;;;;27.55;14.35;;;11.80;99.90;;;;;;6289336;22;20011;-86
2022/03/14 12:43:57;;;;;;;24.40;13.38;;;11.80;99.90;;;;;;6298094;22;20011;-84
2022/03/14 12:46:25;;;;;;;22.40;12.65;;;11.90;99.90;;;;;;6303990;22;20006;-85
2022/03/14 12:48:52;;;;;;;22.27;12.63;;;11.80;99.90;;;;;;6307609;22;19999;-85
2022/03/14 12:51:26;;;;;;;27.15;13.45;;;11.90;99.90;;;;;;6306676;22;20065;-85
2022/03/14 12:53:56;;;;;;;24.85;13.25;;;12.00;99.90;;;;;;6284595;22;20011;-86
2022/03/14 12:56:30;;;;;;;23.67;13.40;;;12.10;99.90;;;;;;6283417;22;20080;-85
2022/03/14 12:59:07;;;;;;;26.17;12.32;;;12.20;99.90;;;;;;6282191;22;20022;-85
2022/03/14 13:01:36;;;;;;;21.80;11.63;;;12.30;99.90;;;;;;6281634;22;20015;-85
2022/03/14 13:04:23;;;;;;;24.05;13.23;;;12.30;99.90;;;;;;6283951;22;20012;-84
2022/03/14 13:06:49;;;;;;;23.23;13.13;;;12.40;99.90;;;;;;6283395;22;20068;-85
2022/03/14 13:09:35;;;;;;;23.20;11.70;;;12.50;99.90;;;;;;6282976;22;20011;-86
2022/03/14 13:12:01;;;;;;;23.95;11.40;;;12.60;99.90;;;;;;6282818;22;20072;-86
2022/03/14 13:14:27;;;;;;;18.35;10.02;;;12.70;99.90;;;;;;6281939;22;20086;-86
2022/03/14 13:16:54;;;;;;;23.17;10.30;;;12.80;99.90;;;;;;6283374;22;20049;-85
2022/03/14 13:19:23;;;;;;;20.38;10.82;;;12.90;99.90;;;;;;6257691;22;20467;-85
2022/03/14 13:21:49;;;;;;;23.45;11.75;;;13.00;99.90;;;;;;6283483;22;20033;-85
2022/03/14 13:24:14;;;;;;;30.02;13.00;;;12.90;99.90;;;;;;6284540;22;20008;-86
2022/03/14 13:26:44;;;;;;;17.10;10.40;;;12.80;99.90;;;;;;6259062;22;20041;-85
2022/03/14 13:29:10;;;;;;;23.83;11.80;;;12.60;99.90;;;;;;6284485;22;20501;-85
2022/03/14 13:31:44;;;;;;;23.52;10.90;;;12.50;99.90;;;;;;6260172;22;20050;-85
2022/03/14 13:34:12;;;;;;;19.27;9.07;;;12.50;99.90;;;;;;6259599;22;20007;-84
2022/03/14 13:36:41;;;;;;;23.75;9.27;;;12.50;99.90;;;;;;6285018;22;20007;-85
2022/03/14 13:39:12;;;;;;;19.23;9.18;;;12.60;99.90;;;;;;6284330;22;20018;-85
2022/03/14 13:41:38;;;;;;;18.38;8.88;;;12.60;99.90;;;;;;6284611;22;20019;-84
2022/03/14 13:44:06;;;;;;;19.77;8.85;;;12.60;99.90;;;;;;6259878;22;20018;-84
2022/03/14 13:47:02;;;;;;;18.40;8.27;;;12.70;99.90;;;;;;6285765;22;20295;-84
2022/03/14 13:49:29;;;;;;;18.60;9.20;;;12.70;99.90;;;;;;6253407;22;20011;-84
2022/03/14 13:51:59;;;;;;;18.70;9.13;;;12.70;99.90;;;;;;6259863;22;20436;-84
2022/03/14 13:54:30;;;;;;;17.42;9.00;;;12.80;99.90;;;;;;6284757;22;20011;-83
2022/03/14 13:57:02;;;;;;;22.23;9.65;;;12.80;99.90;;;;;;6284911;22;20056;-84
2022/03/14 13:59:38;;;;;;;17.55;8.82;;;12.60;99.90;;;;;;6259463;22;20018;-84
2022/03/14 14:02:05;;;;;;;22.65;9.73;;;12.50;99.90;;;;;;6312203;22;20014;-84
2022/03/14 14:04:38;;;;;;;20.70;8.25;;;12.80;99.90;;;;;;6285217;22;20069;-84
2022/03/14 14:07:18;;;;;;;17.75;8.05;;;13.00;99.90;;;;;;6284222;22;20016;-84
2022/03/14 14:09:46;;;;;;;23.92;8.40;;;13.10;99.90;;;;;;6284597;22;20022;-84
2022/03/14 14:12:25;;;;;;;14.40;6.43;;;13.20;99.90;;;;;;6284517;22;20008;-84
2022/03/14 14:14:59;;;;;;;15.68;7.93;;;13.40;99.90;;;;;;6284506;22;20383;-83
2022/03/14 14:17:33;;;;;;;18.25;6.63;;;13.50;99.90;;;;;;6284820;22;20380;-83
2022/03/14 14:20:08;;;;;;;15.52;5.85;;;13.70;99.90;;;;;;6284389;22;20035;-84
2022/03/14 14:22:38;;;;;;;17.98;6.05;;;14.00;99.90;;;;;;6284519;22;20016;-83
2022/03/14 14:25:19;;;;;;;15.98;5.45;;;14.00;99.90;;;;;;6284847;22;20069;-84
2022/03/14 14:28:03;;;;;;;12.05;4.80;;;14.20;99.90;;;;;;6283378;22;20082;-84
2022/03/14 14:30:57;;;;;;;17.02;5.72;;;14.20;99.90;;;;;;6283466;22;20015;-84
2022/03/14 14:33:36;;;;;;;16.05;4.97;;;14.30;99.90;;;;;;6257657;22;20018;-83
2022/03/14 14:36:04;;;;;;;17.75;5.20;;;14.30;99.90;;;;;;6256965;22;20029;-83
2022/03/14 14:38:34;;;;;;;15.57;5.07;;;14.30;99.90;;;;;;6258252;22;20011;-84
2022/03/14 14:41:05;;;;;;;17.52;6.07;;;13.90;99.90;;;;;;6283160;22;20022;-84
2022/03/14 14:43:32;;;;;;;16.13;4.53;;;13.80;99.90;;;;;;6283665;22;20015;-85
2022/03/14 14:46:00;;;;;;;17.77;5.10;;;13.60;99.90;;;;;;6282853;22;20022;-84
2022/03/14 14:48:26;;;;;;;13.15;4.53;;;13.30;99.90;;;;;;6282705;22;20023;-84
2022/03/14 14:50:52;;;;;;;16.15;4.65;;;13.40;99.90;;;;;;6282295;22;20080;-83
2022/03/14 14:53:21;;;;;;;13.50;4.18;;;13.50;99.90;;;;;;6283246;22;20011;-83
2022/03/14 14:55:49;;;;;;;19.08;4.63;;;13.30;99.90;;;;;;6282411;22;20022;-84
2022/03/14 14:58:16;;;;;;;12.10;4.00;;;13.30;99.90;;;;;;6257577;22;20026;-83
2022/03/14 15:00:43;;;;;;;10.60;3.33;;;13.20;99.90;;;;;;6282137;22;20506;-84
2022/03/14 15:03:09;;;;;;;17.67;4.05;;;13.30;99.90;;;;;;6282380;22;20022;-84
2022/03/14 15:05:36;;;;;;;17.38;4.35;;;13.10;99.90;;;;;;6282456;22;20090;-83
2022/03/14 15:08:03;;;;;;;16.08;4.55;;;13.00;99.90;;;;;;6282003;22;20015;-85
2022/03/14 15:10:29;;;;;;;19.17;4.60;;;13.20;99.90;;;;;;6281701;22;20133;-84
2022/03/14 15:12:55;;;;;;;15.98;4.35;;;13.40;99.90;;;;;;6281843;22;20011;-85
2022/03/14 15:15:21;;;;;;;18.70;5.25;;;13.50;99.90;;;;;;6283719;22;20479;-85
2022/03/14 15:17:48;;;;;;;24.67;8.70;;;13.40;99.90;;;;;;6283776;22;20011;-87
2022/03/14 15:20:15;;;;;;;18.45;6.15;;;13.40;99.90;;;;;;6283339;22;20054;-85
2022/03/14 15:22:45;;;;;;;19.88;4.57;;;13.20;99.90;;;;;;6282630;22;20015;-86
2022/03/14 15:25:11;;;;;;;18.95;4.75;;;13.30;99.90;;;;;;6284293;22;20022;-84
2022/03/14 15:27:41;;;;;;;15.57;5.60;;;13.20;99.90;;;;;;6283843;22;20023;-85
2022/03/14 15:30:20;;;;;;;17.50;6.03;;;13.00;99.90;;;;;;6283632;22;20026;-86
2022/03/14 15:32:46;;;;;;;15.48;4.50;;;13.20;99.90;;;;;;6283128;22;20189;-87
2022/03/14 15:35:14;;;;;;;15.20;4.90;;;13.40;99.90;;;;;;6283118;22;20011;-84
2022/03/14 15:37:39;;;;;;;15.10;5.03;;;13.50;99.90;;;;;;6257279;22;20010;-86
2022/03/14 15:40:08;;;;;;;14.18;4.00;;;13.60;99.90;;;;;;6283565;22;20015;-85
2022/03/14 15:42:34;;;;;;;20.42;5.30;;;13.60;99.90;;;;;;6283756;22;20436;-84
2022/03/14 15:45:00;;;;;;;15.30;4.00;;;13.70;99.90;;;;;;6283009;22;20007;-86
2022/03/14 15:47:26;;;;;;;13.73;3.95;;;13.60;99.90;;;;;;6283402;22;20058;-86
2022/03/14 15:49:52;;;;;;;11.13;3.40;;;13.70;99.90;;;;;;6283216;22;20020;-85
2022/03/14 15:52:19;;;;;;;16.83;4.00;;;13.60;99.90;;;;;;6310600;22;20014;-85
2022/03/14 15:54:45;;;;;;;14.45;4.28;;;13.70;99.90;;;;;;6283285;22;20030;-85
2022/03/14 15:57:11;;;;;;;16.23;4.65;;;13.50;99.90;;;;;;6284176;22;20314;-86
2022/03/14 15:59:36;;;;;;;16.30;4.50;;;13.10;99.90;;;;;;6311773;22;20015;-85
2022/03/14 16:02:03;;;;;;;13.50;6.07;;;12.80;99.90;;;;;;6283135;22;20011;-85
2022/03/14 16:04:28;;;;;;;16.13;5.03;;;12.50;99.90;;;;;;6284450;22;20015;-87
2022/03/14 16:06:54;;;;;;;16.02;5.43;;;12.60;99.90;;;;;;6284865;22;20018;-86
2022/03/14 16:09:19;;;;;;;15.63;4.30;;;13.00;99.90;;;;;;6284613;22;20075;-86
2022/03/14 16:11:45;;;;;;;10.90;3.63;;;13.30;99.90;;;;;;6284487;22;20011;-85
2022/03/14 16:14:11;;;;;;;10.98;3.90;;;13.40;99.90;;;;;;6283562;22;20068;-84
2022/03/14 16:16:37;;;;;;;11.57;3.42;;;13.50;99.90;;;;;;6258645;22;20357;-84
2022/03/14 16:19:04;;;;;;;10.75;3.67;;;13.60;99.90;;;;;;6283700;22;20058;-85
2022/03/14 16:21:32;;;;;;;14.77;3.70;;;13.40;99.90;;;;;;6284712;22;20061;-82
2022/03/14 16:23:58;;;;;;;12.98;3.65;;;13.40;99.90;;;;;;6284184;22;20011;-82
2022/03/14 16:26:25;;;;;;;9.00;3.30;;;13.30;99.90;;;;;;6284074;22;20015;-85
2022/03/14 16:28:51;;;;;;;11.02;3.72;;;13.10;99.90;;;;;;6311199;22;20060;-86
2022/03/14 16:31:17;;;;;;;11.48;3.17;;;13.10;99.90;;;;;;6283498;22;20015;-87
2022/03/14 16:33:43;;;;;;;13.27;3.95;;;13.00;99.90;;;;;;6313866;22;20008;-87
2022/03/14 16:36:09;;;;;;;12.93;4.35;;;12.70;99.90;;;;;;6286377;22;20441;-83
2022/03/14 16:38:34;;;;;;;13.50;5.05;;;12.40;99.90;;;;;;6257899;22;20011;-83
2022/03/14 16:41:01;;;;;;;12.25;3.58;;;12.30;99.90;;;;;;6283426;22;20068;-85
2022/03/14 16:43:27;;;;;;;13.52;4.35;;;12.20;99.90;;;;;;6311626;22;20011;-84
2022/03/14 16:45:52;;;;;;;12.45;4.50;;;12.10;99.90;;;;;;6283801;22;20061;-84